sensor_id;sensor_type;location;lat;lon;timestamp;pressure;altitude;pressure_sealevel;temperature;humidity
66857;BME280;53766;50.280;19.160;2023-05-19T00:00:35;99379.16;;;17.61;50.62
66857;BME280;53766;50.280;19.160;2023-05-19T00:03:17;99372.84;;;17.62;50.47
66857;BME280;53766;50.280;19.160;2023-05-19T00:05:47;99374.84;;;17.60;50.45
66857;BME280;53766;50.280;19.160;2023-05-19T00:08:17;99377.50;;;17.60;50.49
66857;BME280;53766;50.280;19.160;2023-05-19T00:10:45;99370.50;;;17.59;50.50
66857;BME280;53766;50.280;19.160;2023-05-19T00:13:13;99373.19;;;17.59;50.58
66857;BME280;53766;50.280;19.160;2023-05-19T00:15:40;99364.19;;;17.60;50.47
66857;BME280;53766;50.280;19.160;2023-05-19T00:18:08;99365.19;;;17.59;50.44
66857;BME280;53766;50.280;19.160;2023-05-19T00:20:36;99367.03;;;17.59;50.60
66857;BME280;53766;50.280;19.160;2023-05-19T00:23:04;99367.03;;;17.59;50.69
66857;BME280;53766;50.280;19.160;2023-05-19T00:25:31;99373.19;;;17.59;50.51
66857;BME280;53766;50.280;19.160;2023-05-19T00:27:59;99372.34;;;17.59;50.50
66857;BME280;53766;50.280;19.160;2023-05-19T00:30:29;99367.84;;;17.59;50.56
66857;BME280;53766;50.280;19.160;2023-05-19T00:32:57;99366.22;;;17.58;50.56
66857;BME280;53766;50.280;19.160;2023-05-19T00:35:24;99357.19;;;17.59;50.58
66857;BME280;53766;50.280;19.160;2023-05-19T00:37:52;99357.19;;;17.59;50.65
66857;BME280;53766;50.280;19.160;2023-05-19T00:40:20;99359.03;;;17.59;50.66
66857;BME280;53766;50.280;19.160;2023-05-19T00:42:48;99346.53;;;17.59;50.51
66857;BME280;53766;50.280;19.160;2023-05-19T00:45:15;99350.22;;;17.58;50.57
66857;BME280;53766;50.280;19.160;2023-05-19T00:47:43;99351.03;;;17.59;50.54
66857;BME280;53766;50.280;19.160;2023-05-19T00:50:10;99355.56;;;17.58;50.45
66857;BME280;53766;50.280;19.160;2023-05-19T00:52:38;99358.22;;;17.58;50.49
66857;BME280;53766;50.280;19.160;2023-05-19T00:55:06;99355.56;;;17.58;50.59
66857;BME280;53766;50.280;19.160;2023-05-19T00:57:35;99344.91;;;17.58;50.60
66857;BME280;53766;50.280;19.160;2023-05-19T01:00:04;99344.06;;;17.58;50.53
66857;BME280;53766;50.280;19.160;2023-05-19T01:02:32;99341.41;;;17.58;50.54
66857;BME280;53766;50.280;19.160;2023-05-19T01:05:00;99344.91;;;17.58;50.53
66857;BME280;53766;50.280;19.160;2023-05-19T01:07:28;99336.09;;;17.58;50.53
66857;BME280;53766;50.280;19.160;2023-05-19T01:09:56;99337.94;;;17.57;50.62
66857;BME280;53766;50.280;19.160;2023-05-19T01:12:24;99339.72;;;17.57;50.49
66857;BME280;53766;50.280;19.160;2023-05-19T01:14:53;99345.91;;;17.57;50.61
66857;BME280;53766;50.280;19.160;2023-05-19T01:18:16;99343.25;;;17.57;50.62
66857;BME280;53766;50.280;19.160;2023-05-19T01:20:46;99344.06;;;17.58;50.44
66857;BME280;53766;50.280;19.160;2023-05-19T01:29:23;99330.91;;;17.56;50.67
66857;BME280;53766;50.280;19.160;2023-05-19T01:31:57;99320.28;;;17.56;50.60
66857;BME280;53766;50.280;19.160;2023-05-19T01:34:26;99337.94;;;17.57;50.60
66857;BME280;53766;50.280;19.160;2023-05-19T01:36:54;99334.59;;;17.55;50.50
66857;BME280;53766;50.280;19.160;2023-05-19T01:39:22;99346.91;;;17.56;50.52
66857;BME280;53766;50.280;19.160;2023-05-19T01:41:51;99334.59;;;17.55;50.56
66857;BME280;53766;50.280;19.160;2023-05-19T01:44:20;99324.78;;;17.56;50.54
66857;BME280;53766;50.280;19.160;2023-05-19T01:46:48;99322.94;;;17.56;50.54
66857;BME280;53766;50.280;19.160;2023-05-19T01:49:16;99323.94;;;17.55;50.55
66857;BME280;53766;50.280;19.160;2023-05-19T01:51:43;99328.44;;;17.55;50.51
66857;BME280;53766;50.280;19.160;2023-05-19T01:54:11;99328.44;;;17.55;50.52
66857;BME280;53766;50.280;19.160;2023-05-19T01:57:05;99322.28;;;17.54;50.41
66857;BME280;53766;50.280;19.160;2023-05-19T02:00:10;99326.78;;;17.54;50.43
66857;BME280;53766;50.280;19.160;2023-05-19T02:08:13;99322.28;;;17.54;50.52
66857;BME280;53766;50.280;19.160;2023-05-19T02:10:49;99321.63;;;17.52;50.56
66857;BME280;53766;50.280;19.160;2023-05-19T02:13:19;99316.28;;;17.52;50.60
66857;BME280;53766;50.280;19.160;2023-05-19T02:15:48;99313.47;;;17.54;50.60
66857;BME280;53766;50.280;19.160;2023-05-19T02:18:17;99304.66;;;17.53;50.47
66857;BME280;53766;50.280;19.160;2023-05-19T02:20:46;99294.00;;;17.53;50.52
66857;BME280;53766;50.280;19.160;2023-05-19T02:23:14;99299.31;;;17.53;50.44
66857;BME280;53766;50.280;19.160;2023-05-19T02:25:42;99295.00;;;17.52;50.49
66857;BME280;53766;50.280;19.160;2023-05-19T02:28:09;99293.16;;;17.53;50.53
66857;BME280;53766;50.280;19.160;2023-05-19T02:30:37;99281.69;;;17.52;50.67
66857;BME280;53766;50.280;19.160;2023-05-19T02:33:04;99285.34;;;17.51;50.43
66857;BME280;53766;50.280;19.160;2023-05-19T02:35:32;99287.00;;;17.52;50.49
66857;BME280;53766;50.280;19.160;2023-05-19T02:38:00;99285.34;;;17.51;50.45
66857;BME280;53766;50.280;19.160;2023-05-19T02:40:27;99282.50;;;17.53;50.44
66857;BME280;53766;50.280;19.160;2023-05-19T02:42:55;99283.53;;;17.52;50.65
66857;BME280;53766;50.280;19.160;2023-05-19T02:45:22;99280.03;;;17.51;50.60
66857;BME280;53766;50.280;19.160;2023-05-19T02:47:50;99281.69;;;17.52;50.60
66857;BME280;53766;50.280;19.160;2023-05-19T02:50:17;99284.50;;;17.51;50.47
66857;BME280;53766;50.280;19.160;2023-05-19T02:52:45;99296.00;;;17.51;50.51
66857;BME280;53766;50.280;19.160;2023-05-19T02:55:12;99297.81;;;17.51;50.65
66857;BME280;53766;50.280;19.160;2023-05-19T02:57:43;99296.00;;;17.51;50.63
66857;BME280;53766;50.280;19.160;2023-05-19T03:00:11;99295.16;;;17.51;50.61
66857;BME280;53766;50.280;19.160;2023-05-19T03:02:38;99301.34;;;17.51;50.59
66857;BME280;53766;50.280;19.160;2023-05-19T03:05:08;99300.50;;;17.51;50.47
66857;BME280;53766;50.280;19.160;2023-05-19T03:07:36;99295.16;;;17.51;50.50
66857;BME280;53766;50.280;19.160;2023-05-19T03:10:04;99298.69;;;17.51;50.55
66857;BME280;53766;50.280;19.160;2023-05-19T03:12:33;99289.00;;;17.50;50.49
66857;BME280;53766;50.280;19.160;2023-05-19T03:15:00;99294.34;;;17.50;50.60
66857;BME280;53766;50.280;19.160;2023-05-19T03:17:28;99294.34;;;17.50;50.63
66857;BME280;53766;50.280;19.160;2023-05-19T03:20:00;99286.34;;;17.50;50.57
66857;BME280;53766;50.280;19.160;2023-05-19T03:22:27;99302.31;;;17.50;50.50
66857;BME280;53766;50.280;19.160;2023-05-19T03:24:55;99297.00;;;17.50;50.57
66857;BME280;53766;50.280;19.160;2023-05-19T03:27:24;99298.03;;;17.49;50.50
66857;BME280;53766;50.280;19.160;2023-05-19T03:29:52;99298.03;;;17.49;50.53
66857;BME280;53766;50.280;19.160;2023-05-19T03:32:19;99295.34;;;17.49;50.64
66857;BME280;53766;50.280;19.160;2023-05-19T03:34:47;99310.31;;;17.50;50.60
66857;BME280;53766;50.280;19.160;2023-05-19T03:37:15;99306.00;;;17.49;50.64
66857;BME280;53766;50.280;19.160;2023-05-19T03:39:42;99303.34;;;17.49;50.62
66857;BME280;53766;50.280;19.160;2023-05-19T03:42:10;99319.31;;;17.49;50.59
66857;BME280;53766;50.280;19.160;2023-05-19T03:44:37;99309.50;;;17.50;50.59
66857;BME280;53766;50.280;19.160;2023-05-19T03:47:05;99299.66;;;17.50;50.50
66857;BME280;53766;50.280;19.160;2023-05-19T03:49:32;99298.03;;;17.49;50.52
66857;BME280;53766;50.280;19.160;2023-05-19T03:51:59;99306.84;;;17.50;50.58
66857;BME280;53766;50.280;19.160;2023-05-19T03:54:29;99303.34;;;17.49;50.54
66857;BME280;53766;50.280;19.160;2023-05-19T03:56:57;99299.66;;;17.50;50.60
66857;BME280;53766;50.280;19.160;2023-05-19T03:59:25;99303.34;;;17.49;50.48
66857;BME280;53766;50.280;19.160;2023-05-19T04:01:53;99304.16;;;17.50;50.57
66857;BME280;53766;50.280;19.160;2023-05-19T04:04:20;99308.69;;;17.49;50.57
66857;BME280;53766;50.280;19.160;2023-05-19T04:06:48;99310.31;;;17.50;50.45
66857;BME280;53766;50.280;19.160;2023-05-19T04:09:15;99312.16;;;17.50;50.62
66857;BME280;53766;50.280;19.160;2023-05-19T04:11:43;99320.97;;;17.50;50.50
66857;BME280;53766;50.280;19.160;2023-05-19T04:14:10;99320.97;;;17.50;50.55
66857;BME280;53766;50.280;19.160;2023-05-19T04:16:38;99318.31;;;17.50;50.37
66857;BME280;53766;50.280;19.160;2023-05-19T04:19:06;99311.13;;;17.51;50.51
66857;BME280;53766;50.280;19.160;2023-05-19T04:21:33;99314.00;;;17.49;50.53
66857;BME280;53766;50.280;19.160;2023-05-19T04:24:01;99315.66;;;17.50;50.47
66857;BME280;53766;50.280;19.160;2023-05-19T04:26:32;99312.97;;;17.50;50.44
66857;BME280;53766;50.280;19.160;2023-05-19T04:29:00;99312.97;;;17.50;50.57
66857;BME280;53766;50.280;19.160;2023-05-19T04:31:30;99310.31;;;17.50;50.44
66857;BME280;53766;50.280;19.160;2023-05-19T04:33:58;99315.66;;;17.50;50.50
66857;BME280;53766;50.280;19.160;2023-05-19T04:36:27;99306.84;;;17.50;50.51
66857;BME280;53766;50.280;19.160;2023-05-19T04:38:55;99308.69;;;17.49;50.32
66857;BME280;53766;50.280;19.160;2023-05-19T04:41:28;99315.66;;;17.50;50.58
66857;BME280;53766;50.280;19.160;2023-05-19T04:43:55;99319.31;;;17.49;50.51
66857;BME280;53766;50.280;19.160;2023-05-19T04:46:23;99315.66;;;17.50;50.51
66857;BME280;53766;50.280;19.160;2023-05-19T04:48:52;99320.97;;;17.50;50.54
66857;BME280;53766;50.280;19.160;2023-05-19T04:51:22;99326.28;;;17.50;50.61
66857;BME280;53766;50.280;19.160;2023-05-19T04:53:57;99320.97;;;17.50;50.59
66857;BME280;53766;50.280;19.160;2023-05-19T04:56:24;99323.63;;;17.50;50.56
66857;BME280;53766;50.280;19.160;2023-05-19T04:58:53;99326.28;;;17.50;50.62
66857;BME280;53766;50.280;19.160;2023-05-19T05:01:20;99327.13;;;17.51;50.67
66857;BME280;53766;50.280;19.160;2023-05-19T05:03:53;99323.63;;;17.50;50.54
66857;BME280;53766;50.280;19.160;2023-05-19T05:06:25;99320.97;;;17.50;50.50
66857;BME280;53766;50.280;19.160;2023-05-19T05:08:55;99319.31;;;17.49;50.38
66857;BME280;53766;50.280;19.160;2023-05-19T05:11:23;99320.97;;;17.50;50.67
66857;BME280;53766;50.280;19.160;2023-05-19T05:13:51;99327.97;;;17.51;50.72
66857;BME280;53766;50.280;19.160;2023-05-19T05:16:18;99326.94;;;17.52;50.93
66857;BME280;53766;50.280;19.160;2023-05-19T05:18:46;99326.94;;;17.52;50.69
66857;BME280;53766;50.280;19.160;2023-05-19T05:21:14;99324.28;;;17.52;50.99
66857;BME280;53766;50.280;19.160;2023-05-19T05:23:42;99325.97;;;17.53;51.07
66857;BME280;53766;50.280;19.160;2023-05-19T05:26:18;99324.28;;;17.52;51.10
66857;BME280;53766;50.280;19.160;2023-05-19T05:28:46;99329.63;;;17.52;51.08
66857;BME280;53766;50.280;19.160;2023-05-19T05:31:13;99330.44;;;17.53;51.20
66857;BME280;53766;50.280;19.160;2023-05-19T05:33:41;99336.63;;;17.53;51.22
66857;BME280;53766;50.280;19.160;2023-05-19T05:36:09;99334.59;;;17.55;51.35
66857;BME280;53766;50.280;19.160;2023-05-19T05:38:37;99332.94;;;17.54;51.35
66857;BME280;53766;50.280;19.160;2023-05-19T05:41:04;99338.25;;;17.54;51.19
66857;BME280;53766;50.280;19.160;2023-05-19T05:43:32;99334.59;;;17.55;51.37
66857;BME280;53766;50.280;19.160;2023-05-19T05:45:59;99331.94;;;17.55;51.31
66857;BME280;53766;50.280;19.160;2023-05-19T05:48:27;99326.63;;;17.55;51.25
66857;BME280;53766;50.280;19.160;2023-05-19T05:50:55;99330.91;;;17.56;51.40
66857;BME280;53766;50.280;19.160;2023-05-19T05:53:24;99333.59;;;17.56;51.33
66857;BME280;53766;50.280;19.160;2023-05-19T05:55:52;99330.91;;;17.56;51.32
66857;BME280;53766;50.280;19.160;2023-05-19T05:58:20;99325.59;;;17.56;51.38
66857;BME280;53766;50.280;19.160;2023-05-19T06:00:48;99340.75;;;17.56;51.50
66857;BME280;53766;50.280;19.160;2023-05-19T06:03:17;99334.59;;;17.55;51.25
66857;BME280;53766;50.280;19.160;2023-05-19T06:05:48;99335.25;;;17.57;51.34
66857;BME280;53766;50.280;19.160;2023-05-19T06:08:15;99343.25;;;17.57;51.24
66857;BME280;53766;50.280;19.160;2023-05-19T06:10:44;99353.91;;;17.57;51.15
66857;BME280;53766;50.280;19.160;2023-05-19T06:13:13;99348.56;;;17.57;51.16
66857;BME280;53766;50.280;19.160;2023-05-19T06:15:43;99345.06;;;17.57;51.25
66857;BME280;53766;50.280;19.160;2023-05-19T06:18:11;99353.91;;;17.57;51.27
66857;BME280;53766;50.280;19.160;2023-05-19T06:20:38;99360.88;;;17.58;51.26
66857;BME280;53766;50.280;19.160;2023-05-19T06:23:06;99359.22;;;17.57;51.34
66857;BME280;53766;50.280;19.160;2023-05-19T06:25:34;99365.19;;;17.59;51.14
66857;BME280;53766;50.280;19.160;2023-05-19T06:28:01;99360.06;;;17.58;51.15
66857;BME280;53766;50.280;19.160;2023-05-19T06:30:29;99370.50;;;17.59;51.17
66857;BME280;53766;50.280;19.160;2023-05-19T06:32:57;99355.56;;;17.58;51.40
66857;BME280;53766;50.280;19.160;2023-05-19T06:35:24;99361.69;;;17.59;51.23
66857;BME280;53766;50.280;19.160;2023-05-19T06:37:52;99361.69;;;17.59;51.31
66857;BME280;53766;50.280;19.160;2023-05-19T06:40:22;99351.03;;;17.59;51.30
66857;BME280;53766;50.280;19.160;2023-05-19T06:42:49;99357.19;;;17.59;51.18
66857;BME280;53766;50.280;19.160;2023-05-19T06:45:17;99358.88;;;17.60;51.04
66857;BME280;53766;50.280;19.160;2023-05-19T06:47:48;99351.88;;;17.59;51.04
66857;BME280;53766;50.280;19.160;2023-05-19T06:50:15;99353.53;;;17.60;51.25
66857;BME280;53766;50.280;19.160;2023-05-19T06:52:43;99349.84;;;17.61;51.20
66857;BME280;53766;50.280;19.160;2023-05-19T06:55:10;99349.84;;;17.61;51.17
66857;BME280;53766;50.280;19.160;2023-05-19T06:57:38;99350.72;;;17.62;51.14
66857;BME280;53766;50.280;19.160;2023-05-19T07:00:06;99351.53;;;17.62;51.23
66857;BME280;53766;50.280;19.160;2023-05-19T07:02:37;99353.19;;;17.63;51.14
66857;BME280;53766;50.280;19.160;2023-05-19T07:05:05;99351.53;;;17.62;51.13
66857;BME280;53766;50.280;19.160;2023-05-19T07:07:32;99354.03;;;17.64;51.17
66857;BME280;53766;50.280;19.160;2023-05-19T07:10:00;99342.53;;;17.63;51.07
66857;BME280;53766;50.280;19.160;2023-05-19T07:12:27;99353.19;;;17.63;51.08
66857;BME280;53766;50.280;19.160;2023-05-19T07:14:55;99346.84;;;17.64;51.08
66857;BME280;53766;50.280;19.160;2023-05-19T07:17:22;99342.53;;;17.63;51.00
66857;BME280;53766;50.280;19.160;2023-05-19T07:19:50;99338.88;;;17.64;51.04
66857;BME280;53766;50.280;19.160;2023-05-19T07:22:17;99344.19;;;17.64;51.14
66857;BME280;53766;50.280;19.160;2023-05-19T07:24:45;99349.53;;;17.64;50.96
66857;BME280;53766;50.280;19.160;2023-05-19T07:27:13;99346.84;;;17.64;51.15
66857;BME280;53766;50.280;19.160;2023-05-19T07:29:40;99346.84;;;17.64;50.93
66857;BME280;53766;50.280;19.160;2023-05-19T07:32:08;99345.84;;;17.65;51.00
66857;BME280;53766;50.280;19.160;2023-05-19T07:34:36;99344.19;;;17.64;51.20
66857;BME280;53766;50.280;19.160;2023-05-19T07:37:03;99344.19;;;17.64;51.10
66857;BME280;53766;50.280;19.160;2023-05-19T07:39:32;99349.53;;;17.64;51.14
66857;BME280;53766;50.280;19.160;2023-05-19T07:42:00;99354.84;;;17.64;51.11
66857;BME280;53766;50.280;19.160;2023-05-19T07:44:28;99354.84;;;17.64;51.00
66857;BME280;53766;50.280;19.160;2023-05-19T07:46:57;99358.34;;;17.65;51.03
66857;BME280;53766;50.280;19.160;2023-05-19T07:49:25;99357.34;;;17.66;50.99
66857;BME280;53766;50.280;19.160;2023-05-19T07:51:53;99359.16;;;17.65;50.93
66857;BME280;53766;50.280;19.160;2023-05-19T07:54:20;99354.69;;;17.66;51.04
66857;BME280;53766;50.280;19.160;2023-05-19T07:56:48;99351.16;;;17.65;51.01
66857;BME280;53766;50.280;19.160;2023-05-19T07:59:15;99354.69;;;17.66;50.90
66857;BME280;53766;50.280;19.160;2023-05-19T08:01:43;99353.81;;;17.65;51.08
66857;BME280;53766;50.280;19.160;2023-05-19T08:04:10;99350.19;;;17.66;50.99
66857;BME280;53766;50.280;19.160;2023-05-19T08:06:39;99347.50;;;17.66;51.03
66857;BME280;53766;50.280;19.160;2023-05-19T08:09:09;99351.16;;;17.65;50.86
66857;BME280;53766;50.280;19.160;2023-05-19T08:11:37;99354.47;;;17.67;50.94
66857;BME280;53766;50.280;19.160;2023-05-19T08:14:04;99358.16;;;17.66;50.80
66857;BME280;53766;50.280;19.160;2023-05-19T08:16:32;99359.00;;;17.67;50.77
66857;BME280;53766;50.280;19.160;2023-05-19T08:18:59;99358.16;;;17.66;50.91
66857;BME280;53766;50.280;19.160;2023-05-19T08:21:29;99351.16;;;17.65;50.84
66857;BME280;53766;50.280;19.160;2023-05-19T08:23:57;99350.19;;;17.66;50.88
66857;BME280;53766;50.280;19.160;2023-05-19T08:26:24;99353.66;;;17.67;50.89
66857;BME280;53766;50.280;19.160;2023-05-19T08:28:52;99344.84;;;17.66;50.91
66857;BME280;53766;50.280;19.160;2023-05-19T08:31:20;99350.19;;;17.66;50.74
66857;BME280;53766;50.280;19.160;2023-05-19T08:33:48;99359.81;;;17.67;50.63
66857;BME280;53766;50.280;19.160;2023-05-19T08:36:16;99363.28;;;17.68;50.87
66857;BME280;53766;50.280;19.160;2023-05-19T08:38:43;99365.13;;;17.67;50.93
66857;BME280;53766;50.280;19.160;2023-05-19T08:41:11;99359.81;;;17.67;50.90
66857;BME280;53766;50.280;19.160;2023-05-19T08:43:38;99365.97;;;17.68;50.79
66857;BME280;53766;50.280;19.160;2023-05-19T08:46:06;99372.16;;;17.68;50.77
66857;BME280;53766;50.280;19.160;2023-05-19T08:48:36;99369.66;;;17.67;50.77
66857;BME280;53766;50.280;19.160;2023-05-19T08:51:16;99370.47;;;17.67;50.83
66857;BME280;53766;50.280;19.160;2023-05-19T08:53:47;99363.28;;;17.68;50.76
66857;BME280;53766;50.280;19.160;2023-05-19T08:56:23;99366.81;;;17.68;50.75
66857;BME280;53766;50.280;19.160;2023-05-19T08:58:51;99368.47;;;17.69;50.77
66857;BME280;53766;50.280;19.160;2023-05-19T09:01:20;99366.81;;;17.68;50.70
66857;BME280;53766;50.280;19.160;2023-05-19T09:03:48;99363.94;;;17.70;50.73
66857;BME280;53766;50.280;19.160;2023-05-19T09:06:16;99358.63;;;17.70;50.75
66857;BME280;53766;50.280;19.160;2023-05-19T09:08:44;99359.47;;;17.71;50.77
66857;BME280;53766;50.280;19.160;2023-05-19T09:11:13;99360.47;;;17.69;50.77
66857;BME280;53766;50.280;19.160;2023-05-19T09:13:40;99366.63;;;17.70;50.70
66857;BME280;53766;50.280;19.160;2023-05-19T09:16:08;99369.28;;;17.70;50.58
66857;BME280;53766;50.280;19.160;2023-05-19T09:18:38;99370.13;;;17.71;50.62
66857;BME280;53766;50.280;19.160;2023-05-19T09:21:07;99364.81;;;17.71;50.71
66857;BME280;53766;50.280;19.160;2023-05-19T09:23:36;99370.13;;;17.71;50.75
66857;BME280;53766;50.280;19.160;2023-05-19T09:26:04;99377.09;;;17.72;50.63
66857;BME280;53766;50.280;19.160;2023-05-19T09:28:35;99371.78;;;17.72;50.57
66857;BME280;53766;50.280;19.160;2023-05-19T09:31:09;99374.44;;;17.72;50.65
66857;BME280;53766;50.280;19.160;2023-05-19T09:33:39;99371.78;;;17.72;50.56
66857;BME280;53766;50.280;19.160;2023-05-19T09:36:12;99377.09;;;17.72;50.58
66857;BME280;53766;50.280;19.160;2023-05-19T09:38:40;99372.59;;;17.72;50.69
66857;BME280;53766;50.280;19.160;2023-05-19T09:41:08;99371.78;;;17.72;50.52
66857;BME280;53766;50.280;19.160;2023-05-19T09:43:35;99372.59;;;17.72;50.65
66857;BME280;53766;50.280;19.160;2023-05-19T09:46:07;99370.78;;;17.73;50.57
66857;BME280;53766;50.280;19.160;2023-05-19T09:48:38;99373.44;;;17.73;50.43
66857;BME280;53766;50.280;19.160;2023-05-19T09:51:06;99368.94;;;17.73;50.51
66857;BME280;53766;50.280;19.160;2023-05-19T09:53:37;99366.28;;;17.73;50.50
66857;BME280;53766;50.280;19.160;2023-05-19T09:56:07;99371.44;;;17.75;50.61
66857;BME280;53766;50.280;19.160;2023-05-19T09:58:35;99366.13;;;17.75;50.55
66857;BME280;53766;50.280;19.160;2023-05-19T10:01:03;99366.13;;;17.75;50.57
66857;BME280;53766;50.280;19.160;2023-05-19T10:03:32;99362.44;;;17.76;50.48
66857;BME280;53766;50.280;19.160;2023-05-19T10:06:00;99355.47;;;17.75;50.52
66857;BME280;53766;50.280;19.160;2023-05-19T10:08:30;99350.13;;;17.75;50.57
66857;BME280;53766;50.280;19.160;2023-05-19T10:10:59;99361.41;;;17.77;50.45
66857;BME280;53766;50.280;19.160;2023-05-19T10:13:28;99357.91;;;17.76;50.47
66857;BME280;53766;50.280;19.160;2023-05-19T10:15:57;99347.09;;;17.78;50.47
66857;BME280;53766;50.280;19.160;2023-05-19T10:18:26;99349.75;;;17.78;50.33
66857;BME280;53766;50.280;19.160;2023-05-19T10:20:56;99346.06;;;17.79;50.41
66857;BME280;53766;50.280;19.160;2023-05-19T10:23:25;99351.41;;;17.79;50.24
66857;BME280;53766;50.280;19.160;2023-05-19T10:25:55;99352.44;;;17.78;50.31
66857;BME280;53766;50.280;19.160;2023-05-19T10:28:30;99354.06;;;17.79;50.42
66857;BME280;53766;50.280;19.160;2023-05-19T10:31:05;99352.25;;;17.79;50.32
66857;BME280;53766;50.280;19.160;2023-05-19T10:33:48;99353.25;;;17.78;50.24
66857;BME280;53766;50.280;19.160;2023-05-19T10:39:22;99352.25;;;17.79;50.35
66857;BME280;53766;50.280;19.160;2023-05-19T10:45:04;99338.72;;;17.81;50.33
66857;BME280;53766;50.280;19.160;2023-05-19T10:47:36;99340.44;;;17.82;50.17
66857;BME280;53766;50.280;19.160;2023-05-19T10:50:06;99340.44;;;17.82;50.31
66857;BME280;53766;50.280;19.160;2023-05-19T10:52:38;99342.94;;;17.83;50.27
66857;BME280;53766;50.280;19.160;2023-05-19T10:55:07;99345.41;;;17.85;50.07
66857;BME280;53766;50.280;19.160;2023-05-19T10:57:36;99334.75;;;17.85;50.20
66857;BME280;53766;50.280;19.160;2023-05-19T11:00:27;99333.09;;;17.84;50.26
66857;BME280;53766;50.280;19.160;2023-05-19T11:03:11;99340.06;;;17.85;50.24
66857;BME280;53766;50.280;19.160;2023-05-19T11:05:40;99340.06;;;17.85;50.13
66857;BME280;53766;50.280;19.160;2023-05-19T11:08:07;99338.22;;;17.85;50.03
66857;BME280;53766;50.280;19.160;2023-05-19T11:10:38;99334.41;;;17.88;50.20
66857;BME280;53766;50.280;19.160;2023-05-19T11:13:05;99336.41;;;17.86;50.08
66857;BME280;53766;50.280;19.160;2023-05-19T11:15:34;99332.72;;;17.87;50.29
66857;BME280;53766;50.280;19.160;2023-05-19T11:18:03;99338.06;;;17.87;50.04
66857;BME280;53766;50.280;19.160;2023-05-19T11:20:31;99339.72;;;17.88;50.04
66857;BME280;53766;50.280;19.160;2023-05-19T11:23:05;99345.06;;;17.88;50.09
66857;BME280;53766;50.280;19.160;2023-05-19T11:25:51;99347.72;;;17.88;50.03
66857;BME280;53766;50.280;19.160;2023-05-19T11:28:22;99345.06;;;17.88;50.07
66857;BME280;53766;50.280;19.160;2023-05-19T11:30:55;99344.03;;;17.89;50.09
66857;BME280;53766;50.280;19.160;2023-05-19T11:33:24;99344.03;;;17.89;49.92
66857;BME280;53766;50.280;19.160;2023-05-19T11:35:55;99351.03;;;17.90;49.96
66857;BME280;53766;50.280;19.160;2023-05-19T11:38:27;99344.03;;;17.89;49.94
66857;BME280;53766;50.280;19.160;2023-05-19T11:40:56;99345.72;;;17.90;50.13
66857;BME280;53766;50.280;19.160;2023-05-19T11:43:24;99350.03;;;17.91;49.97
66857;BME280;53766;50.280;19.160;2023-05-19T11:45:53;99358.00;;;17.91;49.90
66857;BME280;53766;50.280;19.160;2023-05-19T11:48:21;99348.38;;;17.90;50.00
66857;BME280;53766;50.280;19.160;2023-05-19T11:50:49;99347.34;;;17.91;49.62
66857;BME280;53766;50.280;19.160;2023-05-19T11:53:17;99346.38;;;17.92;50.01
66857;BME280;53766;50.280;19.160;2023-05-19T11:55:46;99346.38;;;17.92;49.89
66857;BME280;53766;50.280;19.160;2023-05-19T11:58:15;99341.03;;;17.92;49.88
66857;BME280;53766;50.280;19.160;2023-05-19T12:00:43;99342.69;;;17.93;49.89
66857;BME280;53766;50.280;19.160;2023-05-19T12:03:13;99348.00;;;17.93;49.83
66857;BME280;53766;50.280;19.160;2023-05-19T12:05:44;99339.00;;;17.94;49.93
66857;BME280;53766;50.280;19.160;2023-05-19T12:08:18;99344.31;;;17.94;49.77
66857;BME280;53766;50.280;19.160;2023-05-19T12:10:49;99342.69;;;17.93;49.84
66857;BME280;53766;50.280;19.160;2023-05-19T12:13:20;99341.66;;;17.94;49.79
66857;BME280;53766;50.280;19.160;2023-05-19T12:15:51;99342.50;;;17.95;49.80
66857;BME280;53766;50.280;19.160;2023-05-19T12:18:20;99339.00;;;17.94;49.89
66857;BME280;53766;50.280;19.160;2023-05-19T12:20:47;99335.34;;;17.95;49.78
66857;BME280;53766;50.280;19.160;2023-05-19T12:23:15;99340.66;;;17.95;49.85
66857;BME280;53766;50.280;19.160;2023-05-19T12:25:43;99336.31;;;17.94;49.77
66857;BME280;53766;50.280;19.160;2023-05-19T12:28:10;99330.00;;;17.95;49.77
66857;BME280;53766;50.280;19.160;2023-05-19T12:30:38;99326.31;;;17.96;49.80
66857;BME280;53766;50.280;19.160;2023-05-19T12:33:07;99330.00;;;17.95;49.91
66857;BME280;53766;50.280;19.160;2023-05-19T12:35:36;99325.50;;;17.96;49.77
66857;BME280;53766;50.280;19.160;2023-05-19T12:38:05;99326.31;;;17.96;49.87
66857;BME280;53766;50.280;19.160;2023-05-19T12:40:33;99314.00;;;17.95;49.74
66857;BME280;53766;50.280;19.160;2023-05-19T12:43:02;99318.31;;;17.96;49.86
66857;BME280;53766;50.280;19.160;2023-05-19T12:45:34;99320.16;;;17.96;49.86
66857;BME280;53766;50.280;19.160;2023-05-19T12:48:10;99318.31;;;17.96;49.76
66857;BME280;53766;50.280;19.160;2023-05-19T12:50:38;99324.69;;;17.95;49.79
66857;BME280;53766;50.280;19.160;2023-05-19T12:53:13;99325.50;;;17.96;49.76
66857;BME280;53766;50.280;19.160;2023-05-19T12:55:42;99330.81;;;17.96;49.90
66857;BME280;53766;50.280;19.160;2023-05-19T12:58:11;99328.97;;;17.96;49.77
66857;BME280;53766;50.280;19.160;2023-05-19T13:00:43;99322.00;;;17.95;49.87
66857;BME280;53766;50.280;19.160;2023-05-19T13:03:18;99326.31;;;17.96;49.79
66857;BME280;53766;50.280;19.160;2023-05-19T13:05:49;99314.84;;;17.96;49.79
66857;BME280;53766;50.280;19.160;2023-05-19T13:08:19;99324.69;;;17.95;49.99
66857;BME280;53766;50.280;19.160;2023-05-19T13:10:47;99320.16;;;17.96;49.84
66857;BME280;53766;50.280;19.160;2023-05-19T13:13:16;99325.50;;;17.96;49.73
66857;BME280;53766;50.280;19.160;2023-05-19T13:15:45;99316.69;;;17.95;49.77
66857;BME280;53766;50.280;19.160;2023-05-19T13:18:15;99322.00;;;17.95;49.60